sensor_id;sensor_type;location;lat;lon;timestamp;P1;durP1;ratioP1;P2;durP2;ratioP2
4873;SDS011;2451;49.970;9.068;2022-12-07T00:01:34;14.68;;;9.10;;
4873;SDS011;2451;49.970;9.068;2022-12-07T00:04:01;16.30;;;9.90;;
4873;SDS011;2451;49.970;9.068;2022-12-07T00:06:35;16.08;;;9.65;;
4873;SDS011;2451;49.970;9.068;2022-12-07T00:09:06;16.77;;;9.48;;
4873;SDS011;2451;49.970;9.068;2022-12-07T00:11:34;18.30;;;9.75;;
4873;SDS011;2451;49.970;9.068;2022-12-07T00:14:00;18.25;;;10.02;;
4873;SDS011;2451;49.970;9.068;2022-12-07T00:16:29;19.25;;;10.43;;
4873;SDS011;2451;49.970;9.068;2022-12-07T00:18:57;17.27;;;10.27;;
4873;SDS011;2451;49.970;9.068;2022-12-07T00:21:24;19.08;;;10.32;;
4873;SDS011;2451;49.970;9.068;2022-12-07T00:23:52;19.80;;;10.50;;
4873;SDS011;2451;49.970;9.068;2022-12-07T00:28:49;20.15;;;10.52;;
4873;SDS011;2451;49.970;9.068;2022-12-07T00:31:20;19.17;;;10.27;;
4873;SDS011;2451;49.970;9.068;2022-12-07T00:33:47;18.55;;;10.18;;
4873;SDS011;2451;49.970;9.068;2022-12-07T00:36:15;19.85;;;10.25;;
4873;SDS011;2451;49.970;9.068;2022-12-07T00:38:44;21.60;;;11.25;;
4873;SDS011;2451;49.970;9.068;2022-12-07T00:41:11;18.55;;;11.02;;
4873;SDS011;2451;49.970;9.068;2022-12-07T00:43:39;18.67;;;10.47;;
4873;SDS011;2451;49.970;9.068;2022-12-07T00:46:06;18.42;;;9.73;;
4873;SDS011;2451;49.970;9.068;2022-12-07T00:48:32;18.67;;;9.23;;
4873;SDS011;2451;49.970;9.068;2022-12-07T00:50:58;16.70;;;9.38;;
4873;SDS011;2451;49.970;9.068;2022-12-07T00:53:24;19.13;;;9.48;;
4873;SDS011;2451;49.970;9.068;2022-12-07T00:55:50;15.35;;;9.15;;
4873;SDS011;2451;49.970;9.068;2022-12-07T00:58:17;15.68;;;9.10;;
4873;SDS011;2451;49.970;9.068;2022-12-07T01:00:44;15.35;;;9.32;;
4873;SDS011;2451;49.970;9.068;2022-12-07T01:03:10;19.75;;;10.35;;
4873;SDS011;2451;49.970;9.068;2022-12-07T01:05:37;19.98;;;9.98;;
4873;SDS011;2451;49.970;9.068;2022-12-07T01:08:03;16.02;;;10.02;;
4873;SDS011;2451;49.970;9.068;2022-12-07T01:10:29;18.13;;;9.70;;
4873;SDS011;2451;49.970;9.068;2022-12-07T01:12:56;16.45;;;9.73;;
4873;SDS011;2451;49.970;9.068;2022-12-07T01:15:22;16.40;;;9.63;;
4873;SDS011;2451;49.970;9.068;2022-12-07T01:17:48;19.95;;;10.60;;
4873;SDS011;2451;49.970;9.068;2022-12-07T01:20:13;17.15;;;9.65;;
4873;SDS011;2451;49.970;9.068;2022-12-07T01:22:41;17.38;;;10.13;;
4873;SDS011;2451;49.970;9.068;2022-12-07T01:25:08;18.10;;;10.20;;
4873;SDS011;2451;49.970;9.068;2022-12-07T01:27:36;20.38;;;10.88;;
4873;SDS011;2451;49.970;9.068;2022-12-07T01:30:04;19.33;;;10.15;;
4873;SDS011;2451;49.970;9.068;2022-12-07T01:32:31;18.10;;;10.63;;
4873;SDS011;2451;49.970;9.068;2022-12-07T01:34:57;18.38;;;10.48;;
4873;SDS011;2451;49.970;9.068;2022-12-07T01:37:23;18.00;;;10.55;;
4873;SDS011;2451;49.970;9.068;2022-12-07T01:39:49;20.92;;;11.50;;
4873;SDS011;2451;49.970;9.068;2022-12-07T01:42:15;20.10;;;11.45;;
4873;SDS011;2451;49.970;9.068;2022-12-07T01:45:15;17.92;;;10.50;;
4873;SDS011;2451;49.970;9.068;2022-12-07T01:47:52;21.23;;;11.07;;
4873;SDS011;2451;49.970;9.068;2022-12-07T01:50:20;21.88;;;11.52;;
4873;SDS011;2451;49.970;9.068;2022-12-07T01:52:49;19.17;;;10.35;;
4873;SDS011;2451;49.970;9.068;2022-12-07T01:55:16;22.33;;;10.60;;
4873;SDS011;2451;49.970;9.068;2022-12-07T01:57:43;20.50;;;11.20;;
4873;SDS011;2451;49.970;9.068;2022-12-07T02:00:13;23.13;;;11.55;;
4873;SDS011;2451;49.970;9.068;2022-12-07T02:02:44;20.77;;;10.85;;
4873;SDS011;2451;49.970;9.068;2022-12-07T02:05:14;18.40;;;11.05;;
4873;SDS011;2451;49.970;9.068;2022-12-07T02:07:40;19.65;;;10.90;;
4873;SDS011;2451;49.970;9.068;2022-12-07T02:10:16;20.80;;;11.13;;
4873;SDS011;2451;49.970;9.068;2022-12-07T02:12:48;18.77;;;9.95;;
4873;SDS011;2451;49.970;9.068;2022-12-07T02:15:16;22.50;;;11.93;;
4873;SDS011;2451;49.970;9.068;2022-12-07T02:17:48;20.55;;;11.45;;
4873;SDS011;2451;49.970;9.068;2022-12-07T02:23:56;20.90;;;11.05;;
4873;SDS011;2451;49.970;9.068;2022-12-07T02:29:33;20.67;;;12.13;;
4873;SDS011;2451;49.970;9.068;2022-12-07T02:41:00;19.52;;;11.23;;
4873;SDS011;2451;49.970;9.068;2022-12-07T02:43:06;22.70;;;12.23;;
4873;SDS011;2451;49.970;9.068;2022-12-07T02:45:34;19.13;;;11.18;;
4873;SDS011;2451;49.970;9.068;2022-12-07T02:48:02;21.55;;;11.45;;
4873;SDS011;2451;49.970;9.068;2022-12-07T02:50:31;19.70;;;11.35;;
4873;SDS011;2451;49.970;9.068;2022-12-07T02:52:57;19.15;;;11.38;;
4873;SDS011;2451;49.970;9.068;2022-12-07T02:55:28;21.88;;;12.40;;
4873;SDS011;2451;49.970;9.068;2022-12-07T03:00:41;22.38;;;11.52;;
4873;SDS011;2451;49.970;9.068;2022-12-07T03:03:23;20.75;;;11.20;;
4873;SDS011;2451;49.970;9.068;2022-12-07T03:06:09;22.50;;;12.43;;
4873;SDS011;2451;49.970;9.068;2022-12-07T03:08:56;20.98;;;11.60;;
4873;SDS011;2451;49.970;9.068;2022-12-07T03:11:39;21.15;;;11.93;;
4873;SDS011;2451;49.970;9.068;2022-12-07T03:14:24;20.80;;;12.43;;
4873;SDS011;2451;49.970;9.068;2022-12-07T03:17:07;22.67;;;12.57;;
4873;SDS011;2451;49.970;9.068;2022-12-07T03:19:45;23.15;;;12.65;;
4873;SDS011;2451;49.970;9.068;2022-12-07T03:22:14;21.25;;;12.38;;
4873;SDS011;2451;49.970;9.068;2022-12-07T03:24:46;21.85;;;11.98;;
4873;SDS011;2451;49.970;9.068;2022-12-07T03:27:24;23.60;;;11.27;;
4873;SDS011;2451;49.970;9.068;2022-12-07T03:29:59;19.92;;;11.80;;
4873;SDS011;2451;49.970;9.068;2022-12-07T03:35:01;19.77;;;11.00;;
4873;SDS011;2451;49.970;9.068;2022-12-07T03:42:47;20.90;;;11.38;;
4873;SDS011;2451;49.970;9.068;2022-12-07T03:45:15;22.75;;;11.88;;
4873;SDS011;2451;49.970;9.068;2022-12-07T03:53:05;19.90;;;11.07;;
4873;SDS011;2451;49.970;9.068;2022-12-07T03:55:44;20.02;;;11.35;;
4873;SDS011;2451;49.970;9.068;2022-12-07T03:58:13;19.42;;;11.18;;
4873;SDS011;2451;49.970;9.068;2022-12-07T04:00:42;21.48;;;11.05;;
4873;SDS011;2451;49.970;9.068;2022-12-07T04:03:09;20.10;;;9.88;;
4873;SDS011;2451;49.970;9.068;2022-12-07T04:05:35;19.45;;;10.85;;
4873;SDS011;2451;49.970;9.068;2022-12-07T04:08:01;19.10;;;11.00;;
4873;SDS011;2451;49.970;9.068;2022-12-07T04:10:27;20.13;;;11.00;;
4873;SDS011;2451;49.970;9.068;2022-12-07T04:12:53;20.50;;;10.32;;
4873;SDS011;2451;49.970;9.068;2022-12-07T04:15:18;19.02;;;10.85;;
4873;SDS011;2451;49.970;9.068;2022-12-07T04:17:44;17.60;;;10.48;;
4873;SDS011;2451;49.970;9.068;2022-12-07T04:20:10;19.05;;;10.65;;
4873;SDS011;2451;49.970;9.068;2022-12-07T04:22:36;18.50;;;10.88;;
4873;SDS011;2451;49.970;9.068;2022-12-07T04:25:01;19.45;;;10.27;;
4873;SDS011;2451;49.970;9.068;2022-12-07T04:27:27;18.52;;;10.23;;
4873;SDS011;2451;49.970;9.068;2022-12-07T04:29:53;18.67;;;9.85;;
4873;SDS011;2451;49.970;9.068;2022-12-07T04:32:20;20.23;;;10.38;;
4873;SDS011;2451;49.970;9.068;2022-12-07T04:34:46;18.67;;;10.07;;
4873;SDS011;2451;49.970;9.068;2022-12-07T04:37:12;20.38;;;10.93;;
4873;SDS011;2451;49.970;9.068;2022-12-07T04:39:37;19.33;;;10.48;;
4873;SDS011;2451;49.970;9.068;2022-12-07T04:42:03;20.65;;;11.55;;
4873;SDS011;2451;49.970;9.068;2022-12-07T04:44:29;19.90;;;10.50;;
4873;SDS011;2451;49.970;9.068;2022-12-07T04:46:55;18.45;;;10.27;;
4873;SDS011;2451;49.970;9.068;2022-12-07T04:49:22;19.75;;;10.15;;
4873;SDS011;2451;49.970;9.068;2022-12-07T04:51:48;16.45;;;8.63;;
4873;SDS011;2451;49.970;9.068;2022-12-07T04:54:14;14.27;;;7.95;;
4873;SDS011;2451;49.970;9.068;2022-12-07T04:56:40;17.13;;;8.70;;
4873;SDS011;2451;49.970;9.068;2022-12-07T04:59:06;15.93;;;8.32;;
4873;SDS011;2451;49.970;9.068;2022-12-07T05:01:32;16.80;;;8.43;;
4873;SDS011;2451;49.970;9.068;2022-12-07T05:03:58;15.25;;;8.13;;
4873;SDS011;2451;49.970;9.068;2022-12-07T05:06:24;14.98;;;8.18;;
4873;SDS011;2451;49.970;9.068;2022-12-07T05:08:50;15.30;;;7.20;;
4873;SDS011;2451;49.970;9.068;2022-12-07T05:11:16;11.00;;;6.85;;
4873;SDS011;2451;49.970;9.068;2022-12-07T05:14:01;15.40;;;7.65;;
4873;SDS011;2451;49.970;9.068;2022-12-07T05:16:28;12.35;;;7.25;;
4873;SDS011;2451;49.970;9.068;2022-12-07T05:18:54;14.63;;;7.15;;
4873;SDS011;2451;49.970;9.068;2022-12-07T05:21:19;12.75;;;7.15;;
4873;SDS011;2451;49.970;9.068;2022-12-07T05:23:45;13.77;;;7.68;;
4873;SDS011;2451;49.970;9.068;2022-12-07T05:26:11;17.05;;;7.68;;
4873;SDS011;2451;49.970;9.068;2022-12-07T05:28:36;14.63;;;7.40;;
4873;SDS011;2451;49.970;9.068;2022-12-07T05:31:02;12.30;;;6.65;;
4873;SDS011;2451;49.970;9.068;2022-12-07T05:33:28;13.77;;;7.72;;
4873;SDS011;2451;49.970;9.068;2022-12-07T05:35:54;14.05;;;7.72;;
4873;SDS011;2451;49.970;9.068;2022-12-07T05:38:19;14.45;;;7.32;;
4873;SDS011;2451;49.970;9.068;2022-12-07T05:40:45;13.48;;;7.43;;
4873;SDS011;2451;49.970;9.068;2022-12-07T05:43:10;13.93;;;7.55;;
4873;SDS011;2451;49.970;9.068;2022-12-07T05:45:36;12.90;;;7.43;;
4873;SDS011;2451;49.970;9.068;2022-12-07T05:48:02;13.30;;;7.10;;
4873;SDS011;2451;49.970;9.068;2022-12-07T05:50:27;15.00;;;7.40;;
4873;SDS011;2451;49.970;9.068;2022-12-07T05:52:53;15.30;;;8.10;;
4873;SDS011;2451;49.970;9.068;2022-12-07T05:55:19;14.07;;;8.38;;
4873;SDS011;2451;49.970;9.068;2022-12-07T05:57:44;16.42;;;8.38;;
4873;SDS011;2451;49.970;9.068;2022-12-07T06:00:30;14.75;;;8.10;;
4873;SDS011;2451;49.970;9.068;2022-12-07T06:02:56;13.90;;;7.97;;
4873;SDS011;2451;49.970;9.068;2022-12-07T06:05:21;13.10;;;7.15;;
4873;SDS011;2451;49.970;9.068;2022-12-07T06:07:47;14.32;;;7.60;;
4873;SDS011;2451;49.970;9.068;2022-12-07T06:10:13;14.40;;;7.60;;
4873;SDS011;2451;49.970;9.068;2022-12-07T06:12:38;14.85;;;8.20;;
4873;SDS011;2451;49.970;9.068;2022-12-07T06:15:07;14.77;;;7.77;;
4873;SDS011;2451;49.970;9.068;2022-12-07T06:17:33;13.75;;;8.10;;
4873;SDS011;2451;49.970;9.068;2022-12-07T06:19:59;15.07;;;7.95;;
4873;SDS011;2451;49.970;9.068;2022-12-07T06:22:24;15.25;;;8.60;;
4873;SDS011;2451;49.970;9.068;2022-12-07T06:24:50;15.55;;;7.78;;
4873;SDS011;2451;49.970;9.068;2022-12-07T06:27:16;14.43;;;8.10;;
4873;SDS011;2451;49.970;9.068;2022-12-07T06:29:42;14.18;;;8.27;;
4873;SDS011;2451;49.970;9.068;2022-12-07T06:32:07;15.73;;;8.65;;
4873;SDS011;2451;49.970;9.068;2022-12-07T06:34:33;16.58;;;8.25;;
4873;SDS011;2451;49.970;9.068;2022-12-07T06:36:59;14.63;;;7.68;;
4873;SDS011;2451;49.970;9.068;2022-12-07T06:39:25;15.70;;;7.85;;
4873;SDS011;2451;49.970;9.068;2022-12-07T06:41:52;14.38;;;8.05;;
4873;SDS011;2451;49.970;9.068;2022-12-07T06:44:19;15.48;;;8.00;;
4873;SDS011;2451;49.970;9.068;2022-12-07T06:46:45;15.13;;;8.32;;
4873;SDS011;2451;49.970;9.068;2022-12-07T06:49:11;16.35;;;8.57;;
4873;SDS011;2451;49.970;9.068;2022-12-07T06:51:36;14.55;;;8.55;;
4873;SDS011;2451;49.970;9.068;2022-12-07T06:54:06;16.33;;;8.57;;
4873;SDS011;2451;49.970;9.068;2022-12-07T06:56:35;14.27;;;8.13;;
4873;SDS011;2451;49.970;9.068;2022-12-07T06:59:01;16.38;;;9.02;;
4873;SDS011;2451;49.970;9.068;2022-12-07T07:01:28;16.98;;;9.13;;
4873;SDS011;2451;49.970;9.068;2022-12-07T07:03:54;14.70;;;8.60;;
4873;SDS011;2451;49.970;9.068;2022-12-07T07:06:19;17.35;;;8.98;;
4873;SDS011;2451;49.970;9.068;2022-12-07T07:08:45;13.55;;;8.43;;
4873;SDS011;2451;49.970;9.068;2022-12-07T07:11:11;15.38;;;9.02;;
4873;SDS011;2451;49.970;9.068;2022-12-07T07:13:37;15.23;;;8.55;;
4873;SDS011;2451;49.970;9.068;2022-12-07T07:16:03;13.32;;;8.40;;
4873;SDS011;2451;49.970;9.068;2022-12-07T07:18:29;16.30;;;9.45;;
4873;SDS011;2451;49.970;9.068;2022-12-07T07:20:54;15.32;;;8.68;;
4873;SDS011;2451;49.970;9.068;2022-12-07T07:23:20;13.50;;;8.00;;
4873;SDS011;2451;49.970;9.068;2022-12-07T07:25:47;15.73;;;9.00;;
4873;SDS011;2451;49.970;9.068;2022-12-07T07:28:13;15.77;;;8.60;;
4873;SDS011;2451;49.970;9.068;2022-12-07T07:30:39;15.30;;;8.60;;
4873;SDS011;2451;49.970;9.068;2022-12-07T07:33:05;14.35;;;8.27;;
4873;SDS011;2451;49.970;9.068;2022-12-07T07:35:31;16.52;;;8.88;;
4873;SDS011;2451;49.970;9.068;2022-12-07T07:37:58;14.02;;;8.48;;
4873;SDS011;2451;49.970;9.068;2022-12-07T07:40:24;15.88;;;9.13;;
4873;SDS011;2451;49.970;9.068;2022-12-07T07:42:53;16.05;;;9.50;;
4873;SDS011;2451;49.970;9.068;2022-12-07T07:45:20;15.70;;;8.68;;
4873;SDS011;2451;49.970;9.068;2022-12-07T07:47:46;15.13;;;8.60;;
4873;SDS011;2451;49.970;9.068;2022-12-07T07:50:12;14.88;;;8.40;;
4873;SDS011;2451;49.970;9.068;2022-12-07T07:52:38;15.88;;;8.95;;
4873;SDS011;2451;49.970;9.068;2022-12-07T07:55:04;16.00;;;9.02;;
4873;SDS011;2451;49.970;9.068;2022-12-07T07:57:30;16.77;;;9.05;;
4873;SDS011;2451;49.970;9.068;2022-12-07T07:59:55;17.95;;;8.77;;
4873;SDS011;2451;49.970;9.068;2022-12-07T08:02:21;18.83;;;9.75;;
4873;SDS011;2451;49.970;9.068;2022-12-07T08:04:47;16.05;;;9.82;;
4873;SDS011;2451;49.970;9.068;2022-12-07T08:07:13;14.57;;;9.27;;
4873;SDS011;2451;49.970;9.068;2022-12-07T08:09:39;16.00;;;8.07;;
4873;SDS011;2451;49.970;9.068;2022-12-07T08:12:05;14.77;;;8.85;;
4873;SDS011;2451;49.970;9.068;2022-12-07T08:14:31;15.27;;;8.63;;
4873;SDS011;2451;49.970;9.068;2022-12-07T08:16:57;15.82;;;8.70;;
4873;SDS011;2451;49.970;9.068;2022-12-07T08:19:22;15.15;;;8.55;;
4873;SDS011;2451;49.970;9.068;2022-12-07T08:21:48;14.00;;;8.27;;
4873;SDS011;2451;49.970;9.068;2022-12-07T08:24:14;14.60;;;7.95;;
4873;SDS011;2451;49.970;9.068;2022-12-07T08:26:40;16.30;;;9.32;;
4873;SDS011;2451;49.970;9.068;2022-12-07T08:29:06;14.18;;;9.05;;
4873;SDS011;2451;49.970;9.068;2022-12-07T08:31:31;16.27;;;8.35;;
4873;SDS011;2451;49.970;9.068;2022-12-07T08:33:57;16.52;;;8.98;;
4873;SDS011;2451;49.970;9.068;2022-12-07T08:36:23;16.77;;;8.45;;
4873;SDS011;2451;49.970;9.068;2022-12-07T08:38:49;14.90;;;9.15;;
4873;SDS011;2451;49.970;9.068;2022-12-07T08:41:15;15.70;;;8.20;;
4873;SDS011;2451;49.970;9.068;2022-12-07T08:43:41;13.65;;;8.50;;
4873;SDS011;2451;49.970;9.068;2022-12-07T08:49:01;14.65;;;8.05;;
4873;SDS011;2451;49.970;9.068;2022-12-07T08:53:53;17.90;;;8.73;;
4873;SDS011;2451;49.970;9.068;2022-12-07T08:56:21;15.50;;;8.73;;
4873;SDS011;2451;49.970;9.068;2022-12-07T08:58:47;15.60;;;8.95;;
4873;SDS011;2451;49.970;9.068;2022-12-07T09:01:13;15.90;;;9.00;;
4873;SDS011;2451;49.970;9.068;2022-12-07T09:03:38;14.77;;;8.52;;
4873;SDS011;2451;49.970;9.068;2022-12-07T09:06:04;15.93;;;9.35;;
4873;SDS011;2451;49.970;9.068;2022-12-07T09:08:31;16.38;;;8.88;;
4873;SDS011;2451;49.970;9.068;2022-12-07T09:11:00;14.35;;;8.82;;
4873;SDS011;2451;49.970;9.068;2022-12-07T09:13:25;14.18;;;8.38;;
4873;SDS011;2451;49.970;9.068;2022-12-07T09:15:51;16.65;;;9.20;;
4873;SDS011;2451;49.970;9.068;2022-12-07T09:18:16;15.65;;;8.68;;
4873;SDS011;2451;49.970;9.068;2022-12-07T09:20:42;14.43;;;8.73;;
4873;SDS011;2451;49.970;9.068;2022-12-07T09:23:07;15.48;;;9.00;;
4873;SDS011;2451;49.970;9.068;2022-12-07T09:25:33;18.92;;;9.20;;
4873;SDS011;2451;49.970;9.068;2022-12-07T09:27:59;16.75;;;8.80;;
4873;SDS011;2451;49.970;9.068;2022-12-07T09:30:26;13.65;;;8.55;;
4873;SDS011;2451;49.970;9.068;2022-12-07T09:32:53;13.95;;;8.45;;
4873;SDS011;2451;49.970;9.068;2022-12-07T09:35:20;14.52;;;8.45;;
4873;SDS011;2451;49.970;9.068;2022-12-07T09:37:46;13.75;;;8.68;;
4873;SDS011;2451;49.970;9.068;2022-12-07T09:40:12;17.98;;;9.30;;
4873;SDS011;2451;49.970;9.068;2022-12-07T09:42:39;13.18;;;8.15;;
4873;SDS011;2451;49.970;9.068;2022-12-07T09:45:52;15.18;;;8.18;;
4873;SDS011;2451;49.970;9.068;2022-12-07T09:47:59;15.05;;;8.50;;
4873;SDS011;2451;49.970;9.068;2022-12-07T09:50:26;13.85;;;8.48;;
4873;SDS011;2451;49.970;9.068;2022-12-07T09:52:53;12.07;;;6.65;;
4873;SDS011;2451;49.970;9.068;2022-12-07T09:55:29;15.90;;;8.07;;
4873;SDS011;2451;49.970;9.068;2022-12-07T09:57:55;14.40;;;8.23;;
4873;SDS011;2451;49.970;9.068;2022-12-07T10:00:23;14.02;;;8.27;;
4873;SDS011;2451;49.970;9.068;2022-12-07T10:05:27;13.88;;;8.30;;
4873;SDS011;2451;49.970;9.068;2022-12-07T10:08:02;13.75;;;8.38;;
4873;SDS011;2451;49.970;9.068;2022-12-07T10:10:32;12.00;;;7.47;;
4873;SDS011;2451;49.970;9.068;2022-12-07T10:13:01;15.57;;;7.93;;
4873;SDS011;2451;49.970;9.068;2022-12-07T10:15:42;12.48;;;7.38;;
4873;SDS011;2451;49.970;9.068;2022-12-07T10:18:29;13.50;;;7.00;;
4873;SDS011;2451;49.970;9.068;2022-12-07T10:21:01;12.52;;;7.60;;
4873;SDS011;2451;49.970;9.068;2022-12-07T10:23:29;12.02;;;7.40;;
4873;SDS011;2451;49.970;9.068;2022-12-07T10:25:55;10.75;;;7.07;;
4873;SDS011;2451;49.970;9.068;2022-12-07T10:28:20;11.02;;;7.47;;
4873;SDS011;2451;49.970;9.068;2022-12-07T10:30:57;14.02;;;7.25;;
4873;SDS011;2451;49.970;9.068;2022-12-07T10:39:29;12.50;;;7.22;;
4873;SDS011;2451;49.970;9.068;2022-12-07T10:44:31;8.15;;;5.45;;
4873;SDS011;2451;49.970;9.068;2022-12-07T11:05:49;7.85;;;4.55;;
4873;SDS011;2451;49.970;9.068;2022-12-07T11:24:56;8.25;;;5.28;;
4873;SDS011;2451;49.970;9.068;2022-12-07T11:27:41;11.05;;;6.38;;
4873;SDS011;2451;49.970;9.068;2022-12-07T11:38:03;9.60;;;4.97;;
4873;SDS011;2451;49.970;9.068;2022-12-07T11:40:45;11.18;;;5.47;;
4873;SDS011;2451;49.970;9.068;2022-12-07T11:43:27;8.68;;;5.10;;
4873;SDS011;2451;49.970;9.068;2022-12-07T11:45:59;9.60;;;5.45;;
4873;SDS011;2451;49.970;9.068;2022-12-07T11:51:10;11.57;;;6.88;;
4873;SDS011;2451;49.970;9.068;2022-12-07T11:53:48;11.10;;;6.32;;
4873;SDS011;2451;49.970;9.068;2022-12-07T11:56:20;10.52;;;5.82;;
4873;SDS011;2451;49.970;9.068;2022-12-07T12:03:46;10.10;;;5.45;;
4873;SDS011;2451;49.970;9.068;2022-12-07T12:06:13;8.75;;;5.20;;
4873;SDS011;2451;49.970;9.068;2022-12-07T12:08:40;8.20;;;5.20;;
4873;SDS011;2451;49.970;9.068;2022-12-07T12:14:28;12.15;;;5.75;;
4873;SDS011;2451;49.970;9.068;2022-12-07T12:17:32;9.30;;;5.63;;
4873;SDS011;2451;49.970;9.068;2022-12-07T12:20:26;8.48;;;5.47;;
4873;SDS011;2451;49.970;9.068;2022-12-07T12:23:11;10.52;;;6.05;;
4873;SDS011;2451;49.970;9.068;2022-12-07T12:25:45;10.35;;;5.20;;
4873;SDS011;2451;49.970;9.068;2022-12-07T12:28:19;9.60;;;5.15;;
4873;SDS011;2451;49.970;9.068;2022-12-07T12:33:31;10.77;;;5.05;;
4873;SDS011;2451;49.970;9.068;2022-12-07T12:38:51;8.25;;;4.60;;
4873;SDS011;2451;49.970;9.068;2022-12-07T12:51:42;8.20;;;4.88;;
4873;SDS011;2451;49.970;9.068;2022-12-07T12:56:48;8.60;;;5.10;;
4873;SDS011;2451;49.970;9.068;2022-12-07T12:59:26;8.10;;;5.10;;
4873;SDS011;2451;49.970;9.068;2022-12-07T13:01:56;9.57;;;4.57;;
4873;SDS011;2451;49.970;9.068;2022-12-07T13:05:02;11.38;;;5.30;;
4873;SDS011;2451;49.970;9.068;2022-12-07T13:15:53;8.32;;;4.65;;
4873;SDS011;2451;49.970;9.068;2022-12-07T13:18:24;8.52;;;4.25;;
4873;SDS011;2451;49.970;9.068;2022-12-07T13:23:31;8.40;;;4.43;;
4873;SDS011;2451;49.970;9.068;2022-12-07T13:31:34;8.68;;;4.18;;
4873;SDS011;2451;49.970;9.068;2022-12-07T13:34:05;8.57;;;4.65;;
4873;SDS011;2451;49.970;9.068;2022-12-07T13:36:59;11.27;;;4.30;;
4873;SDS011;2451;49.970;9.068;2022-12-07T13:39:53;7.93;;;3.95;;
4873;SDS011;2451;49.970;9.068;2022-12-07T13:42:26;8.48;;;4.20;;
4873;SDS011;2451;49.970;9.068;2022-12-07T13:44:56;7.68;;;4.07;;
4873;SDS011;2451;49.970;9.068;2022-12-07T13:47:37;10.05;;;3.83;;
4873;SDS011;2451;49.970;9.068;2022-12-07T13:50:21;7.90;;;3.75;;
4873;SDS011;2451;49.970;9.068;2022-12-07T13:52:49;10.15;;;4.47;;
4873;SDS011;2451;49.970;9.068;2022-12-07T13:55:16;8.13;;;4.30;;
4873;SDS011;2451;49.970;9.068;2022-12-07T13:57:42;9.30;;;3.72;;
4873;SDS011;2451;49.970;9.068;2022-12-07T14:02:58;7.55;;;3.92;;
4873;SDS011;2451;49.970;9.068;2022-12-07T14:05:32;7.70;;;4.03;;
4873;SDS011;2451;49.970;9.068;2022-12-07T14:15:56;6.93;;;3.33;;
4873;SDS011;2451;49.970;9.068;2022-12-07T14:21:04;6.47;;;3.45;;
4873;SDS011;2451;49.970;9.068;2022-12-07T14:23:36;7.88;;;4.13;;
4873;SDS011;2451;49.970;9.068;2022-12-07T14:26:13;8.73;;;4.50;;
4873;SDS011;2451;49.970;9.068;2022-12-07T14:28:40;12.77;;;5.53;;
4873;SDS011;2451;49.970;9.068;2022-12-07T14:31:11;8.20;;;4.53;;
4873;SDS011;2451;49.970;9.068;2022-12-07T14:33:38;8.05;;;4.30;;
4873;SDS011;2451;49.970;9.068;2022-12-07T14:36:04;8.40;;;4.47;;
4873;SDS011;2451;49.970;9.068;2022-12-07T14:38:29;8.48;;;4.97;;
4873;SDS011;2451;49.970;9.068;2022-12-07T14:40:55;10.18;;;5.35;;
4873;SDS011;2451;49.970;9.068;2022-12-07T14:43:45;8.07;;;5.10;;
4873;SDS011;2451;49.970;9.068;2022-12-07T14:46:10;8.93;;;5.20;;
4873;SDS011;2451;49.970;9.068;2022-12-07T14:48:36;10.00;;;5.30;;
4873;SDS011;2451;49.970;9.068;2022-12-07T14:51:01;10.90;;;4.38;;
4873;SDS011;2451;49.970;9.068;2022-12-07T14:53:29;8.70;;;4.75;;
4873;SDS011;2451;49.970;9.068;2022-12-07T14:55:59;9.60;;;4.25;;
4873;SDS011;2451;49.970;9.068;2022-12-07T14:58:25;8.82;;;3.95;;
4873;SDS011;2451;49.970;9.068;2022-12-07T15:00:50;8.88;;;4.38;;
4873;SDS011;2451;49.970;9.068;2022-12-07T15:03:16;6.70;;;3.67;;
4873;SDS011;2451;49.970;9.068;2022-12-07T15:05:41;10.60;;;4.20;;
4873;SDS011;2451;49.970;9.068;2022-12-07T15:08:11;8.32;;;3.97;;
4873;SDS011;2451;49.970;9.068;2022-12-07T15:10:37;8.13;;;4.15;;
4873;SDS011;2451;49.970;9.068;2022-12-07T15:13:04;6.85;;;4.00;;
4873;SDS011;2451;49.970;9.068;2022-12-07T15:15:50;8.18;;;3.95;;
4873;SDS011;2451;49.970;9.068;2022-12-07T15:18:18;7.00;;;3.60;;
4873;SDS011;2451;49.970;9.068;2022-12-07T15:20:44;7.47;;;3.30;;
4873;SDS011;2451;49.970;9.068;2022-12-07T15:23:11;7.88;;;3.42;;
4873;SDS011;2451;49.970;9.068;2022-12-07T15:25:39;7.28;;;3.40;;
4873;SDS011;2451;49.970;9.068;2022-12-07T15:28:06;6.07;;;3.10;;
4873;SDS011;2451;49.970;9.068;2022-12-07T15:30:31;9.32;;;3.20;;
4873;SDS011;2451;49.970;9.068;2022-12-07T15:32:57;6.03;;;3.40;;
4873;SDS011;2451;49.970;9.068;2022-12-07T15:35:23;8.30;;;3.10;;
4873;SDS011;2451;49.970;9.068;2022-12-07T15:37:48;6.45;;;3.40;;
4873;SDS011;2451;49.970;9.068;2022-12-07T15:40:14;7.13;;;3.50;;
4873;SDS011;2451;49.970;9.068;2022-12-07T15:42:39;7.90;;;3.35;;
4873;SDS011;2451;49.970;9.068;2022-12-07T15:45:05;6.32;;;3.35;;
4873;SDS011;2451;49.970;9.068;2022-12-07T15:47:36;8.43;;;4.00;;
4873;SDS011;2451;49.970;9.068;2022-12-07T15:50:04;10.55;;;6.00;;
4873;SDS011;2451;49.970;9.068;2022-12-07T15:52:32;7.93;;;5.50;;
4873;SDS011;2451;49.970;9.068;2022-12-07T15:54:59;9.43;;;5.53;;
4873;SDS011;2451;49.970;9.068;2022-12-07T15:57:25;11.85;;;6.15;;
4873;SDS011;2451;49.970;9.068;2022-12-07T15:59:51;10.18;;;5.85;;
4873;SDS011;2451;49.970;9.068;2022-12-07T16:02:17;11.90;;;5.50;;
4873;SDS011;2451;49.970;9.068;2022-12-07T16:04:43;8.43;;;5.00;;
4873;SDS011;2451;49.970;9.068;2022-12-07T16:07:08;13.68;;;5.70;;
4873;SDS011;2451;49.970;9.068;2022-12-07T16:09:36;11.05;;;4.80;;
4873;SDS011;2451;49.970;9.068;2022-12-07T16:12:02;10.40;;;5.03;;
4873;SDS011;2451;49.970;9.068;2022-12-07T16:14:27;12.13;;;5.47;;
4873;SDS011;2451;49.970;9.068;2022-12-07T16:16:53;10.45;;;5.45;;
4873;SDS011;2451;49.970;9.068;2022-12-07T16:19:18;8.73;;;4.85;;
4873;SDS011;2451;49.970;9.068;2022-12-07T16:21:44;12.35;;;6.32;;
4873;SDS011;2451;49.970;9.068;2022-12-07T16:24:10;10.50;;;6.28;;
4873;SDS011;2451;49.970;9.068;2022-12-07T16:26:37;10.25;;;5.40;;
4873;SDS011;2451;49.970;9.068;2022-12-07T16:29:03;10.05;;;5.15;;
4873;SDS011;2451;49.970;9.068;2022-12-07T16:31:28;10.48;;;5.10;;
4873;SDS011;2451;49.970;9.068;2022-12-07T16:33:55;8.10;;;3.67;;
4873;SDS011;2451;49.970;9.068;2022-12-07T16:36:22;12.05;;;4.63;;
4873;SDS011;2451;49.970;9.068;2022-12-07T16:38:49;11.35;;;4.20;;
4873;SDS011;2451;49.970;9.068;2022-12-07T16:41:15;7.88;;;4.45;;
4873;SDS011;2451;49.970;9.068;2022-12-07T16:43:41;6.95;;;4.03;;
4873;SDS011;2451;49.970;9.068;2022-12-07T16:46:06;8.05;;;4.05;;
4873;SDS011;2451;49.970;9.068;2022-12-07T16:48:34;10.75;;;4.90;;
4873;SDS011;2451;49.970;9.068;2022-12-07T16:51:04;9.18;;;4.68;;
4873;SDS011;2451;49.970;9.068;2022-12-07T16:53:34;11.38;;;4.50;;
4873;SDS011;2451;49.970;9.068;2022-12-07T16:56:01;7.63;;;4.00;;
4873;SDS011;2451;49.970;9.068;2022-12-07T16:58:27;7.82;;;4.10;;
4873;SDS011;2451;49.970;9.068;2022-12-07T17:00:53;8.35;;;3.83;;
4873;SDS011;2451;49.970;9.068;2022-12-07T17:03:18;9.35;;;4.00;;
4873;SDS011;2451;49.970;9.068;2022-12-07T17:05:44;7.55;;;3.75;;
4873;SDS011;2451;49.970;9.068;2022-12-07T17:08:11;9.55;;;3.92;;
4873;SDS011;2451;49.970;9.068;2022-12-07T17:10:38;7.07;;;3.85;;
4873;SDS011;2451;49.970;9.068;2022-12-07T17:13:05;7.40;;;3.78;;
4873;SDS011;2451;49.970;9.068;2022-12-07T17:16:02;9.40;;;3.78;;
4873;SDS011;2451;49.970;9.068;2022-12-07T17:18:31;8.55;;;3.95;;
4873;SDS011;2451;49.970;9.068;2022-12-07T17:21:02;8.95;;;4.05;;
4873;SDS011;2451;49.970;9.068;2022-12-07T17:23:30;7.68;;;4.15;;
4873;SDS011;2451;49.970;9.068;2022-12-07T17:26:03;10.63;;;3.97;;
4873;SDS011;2451;49.970;9.068;2022-12-07T17:28:33;7.82;;;3.88;;
4873;SDS011;2451;49.970;9.068;2022-12-07T17:30:59;7.00;;;4.03;;
4873;SDS011;2451;49.970;9.068;2022-12-07T17:33:25;7.65;;;4.20;;
4873;SDS011;2451;49.970;9.068;2022-12-07T17:35:51;8.90;;;4.60;;
4873;SDS011;2451;49.970;9.068;2022-12-07T17:38:16;7.88;;;4.38;;
4873;SDS011;2451;49.970;9.068;2022-12-07T17:40:42;8.20;;;4.47;;
4873;SDS011;2451;49.970;9.068;2022-12-07T17:43:07;8.68;;;5.10;;
4873;SDS011;2451;49.970;9.068;2022-12-07T17:45:33;7.72;;;4.60;;